Time;durP1;ratioP1;P1;durP2;ratioP2;P2;SDS_P1;SDS_P2;PMS_P1;PMS_P2;Temp;Humidity;BMP_temperature;BMP_pressure;BME280_temperature;BME280_humidity;BME280_pressure;Samples;Min_cycle;Max_cycle;Signal;HPM_P1;HPM_P2
2022/01/28 00:00:53;;;;;;;11.40;8.47;;;;;;;-6.05;94.23;100534.38;31127037;28;20523;-75
2022/01/28 00:46:39;;;;;;;19.57;7.40;;;;;;;-5.85;96.61;100496.88;31151321;28;20061;-75
2022/01/28 01:01:42;;;;;;;16.23;8.70;;;;;;;-5.75;96.15;100485.31;31096956;28;20064;-74
2022/01/28 01:17:05;;;;;;;25.90;11.20;;;;;;;-5.58;96.63;100458.19;31105883;28;20065;-75
2022/01/28 01:32:12;;;;;;;18.50;8.73;;;;;;;-5.56;97.09;100442.81;31121428;28;20060;-74
2022/01/28 02:02:18;;;;;;;13.83;7.73;;;;;;;-5.38;96.82;100415.34;31057982;28;20050;-75
2022/01/28 02:17:20;;;;;;;17.50;10.17;;;;;;;-5.23;95.57;100412.31;31121451;28;20073;-74
2022/01/28 02:32:23;;;;;;;13.53;8.37;;;;;;;-5.11;93.76;100408.31;31092219;28;20519;-74
2022/01/28 02:47:32;;;;;;;9.77;6.03;;;;;;;-5.00;93.66;100377.84;31080171;28;20575;-73
2022/01/28 03:02:34;;;;;;;15.90;8.50;;;;;;;-4.92;92.98;100369.13;31106839;28;20756;-73
2022/01/28 03:17:51;;;;;;;12.17;6.93;;;;;;;-4.94;93.10;100363.34;31072529;28;20086;-75
2022/01/28 03:32:53;;;;;;;14.17;7.90;;;;;;;-5.04;92.21;100334.53;31105137;28;20536;-76
2022/01/28 03:48:03;;;;;;;17.67;8.87;;;;;;;-5.00;92.08;100330.19;31091962;28;20479;-75
2022/01/28 04:03:13;;;;;;;11.27;5.33;;;;;;;-5.01;91.82;100336.56;31137761;28;20084;-75
2022/01/28 04:18:15;;;;;;;13.03;6.93;;;;;;;-5.06;92.02;100331.41;31140020;28;20439;-73
2022/01/28 04:33:17;;;;;;;7.27;4.97;;;;;;;-5.02;92.13;100337.66;31136976;28;20668;-74
2022/01/28 05:34:01;;;;;;;12.17;6.17;;;;;;;-4.50;92.81;100307.47;31091003;28;20046;-74
2022/01/28 05:49:03;;;;;;;14.33;7.70;;;;;;;-4.35;93.71;100318.69;31152863;28;20088;-74
2022/01/28 06:04:05;;;;;;;9.73;4.97;;;;;;;-4.13;93.52;100310.56;31120436;28;20150;-75
2022/01/28 06:19:07;;;;;;;17.97;7.80;;;;;;;-3.98;93.72;100307.41;31082110;28;20086;-75
2022/01/28 06:34:09;;;;;;;15.50;5.90;;;;;;;-3.81;95.01;100304.72;31118579;28;20136;-75
2022/01/28 06:49:11;;;;;;;11.67;5.20;;;;;;;-3.56;95.14;100289.81;31060290;28;20054;-74
2022/01/28 07:04:14;;;;;;;17.60;7.87;;;;;;;-3.43;95.65;100280.03;31115474;28;20472;-73
2022/01/28 07:19:16;;;;;;;8.83;4.43;;;;;;;-3.18;96.34;100271.16;31097527;28;20061;-75
2022/01/28 07:34:18;;;;;;;15.47;8.07;;;;;;;-2.76;98.32;100256.03;31062580;28;20058;-75
2022/01/28 07:49:20;;;;;;;11.20;6.27;;;;;;;-2.66;99.09;100265.50;31110592;28;20136;-75
2022/01/28 08:04:21;;;;;;;9.40;6.27;;;;;;;-2.68;100.00;100245.66;31099779;28;20080;-75
2022/01/28 08:19:24;;;;;;;6.13;3.83;;;;;;;-2.47;100.00;100239.19;31090812;28;20082;-75
2022/01/28 08:34:26;;;;;;;17.57;7.07;;;;;;;-2.29;100.00;100218.53;31093096;28;20062;-76
2022/01/28 08:49:28;;;;;;;12.97;7.37;;;;;;;-2.09;100.00;100203.59;31090426;28;20053;-75
2022/01/28 09:04:30;;;;;;;11.53;6.73;;;;;;;-1.82;100.00;100163.03;31104301;28;20500;-73
2022/01/28 09:19:32;;;;;;;12.70;6.30;;;;;;;-1.60;100.00;100137.06;31099000;28;20086;-75
2022/01/28 09:34:34;;;;;;;9.90;5.83;;;;;;;-1.51;100.00;100114.53;31110077;28;20125;-73
2022/01/28 09:49:37;;;;;;;18.20;7.23;;;;;;;-1.49;100.00;100087.59;31106278;28;20539;-75
2022/01/28 10:04:39;;;;;;;13.43;6.20;;;;;;;-1.47;100.00;100064.84;31122686;28;20077;-74
2022/01/28 10:19:43;;;;;;;16.87;7.80;;;;;;;-1.33;100.00;100032.47;31102030;28;20484;-73
2022/01/28 10:34:49;;;;;;;15.57;8.37;;;;;;;-0.99;100.00;99979.69;31077589;28;20046;-76
2022/01/28 10:49:51;;;;;;;11.77;5.97;;;;;;;-0.90;100.00;99975.72;31100157;28;20087;-74
2022/01/28 11:04:56;;;;;;;18.70;9.23;;;;;;;-0.93;100.00;99959.66;31152745;28;20058;-74
2022/01/28 11:19:59;;;;;;;26.80;10.37;;;;;;;-0.76;100.00;99916.69;31113971;28;20054;-75
2022/01/28 11:35:03;;;;;;;20.17;8.57;;;;;;;-0.44;100.00;99886.13;31100721;28;20464;-73
2022/01/28 11:50:08;;;;;;;16.80;7.60;;;;;;;-0.31;100.00;99862.78;31125806;28;20050;-74
2022/01/28 12:05:25;;;;;;;18.83;8.73;;;;;;;-0.19;100.00;99864.53;31074012;28;20057;-74
2022/01/28 12:20:48;;;;;;;14.13;6.00;;;;;;;0.09;100.00;99849.06;31073756;28;20061;-74
2022/01/28 12:35:53;;;;;;;24.27;9.97;;;;;;;0.35;100.00;99827.00;31118662;28;20053;-74
2022/01/28 12:50:56;;;;;;;21.20;10.43;;;;;;;0.50;100.00;99809.31;31176092;28;20124;-74
2022/01/28 13:06:22;;;;;;;21.13;9.13;;;;;;;0.59;100.00;99793.81;31100685;28;20077;-74
2022/01/28 13:21:24;;;;;;;20.30;8.57;;;;;;;0.78;100.00;99788.38;31113847;28;20050;-73
2022/01/28 13:36:26;;;;;;;29.70;11.53;;;;;;;0.96;100.00;99794.75;31097743;28;20108;-74
2022/01/28 13:51:28;;;;;;;16.33;9.00;;;;;;;0.95;100.00;99785.19;31126004;28;20128;-75
2022/01/28 14:06:35;;;;;;;29.90;12.23;;;;;;;0.94;100.00;99764.97;31120944;28;20144;-74
2022/01/28 14:21:38;;;;;;;25.23;11.23;;;;;;;0.92;100.00;99767.22;31124645;28;20042;-74
2022/01/28 14:36:40;;;;;;;25.80;9.97;;;;;;;0.82;100.00;99751.81;31098772;28;20110;-74
2022/01/28 14:51:50;;;;;;;27.93;12.50;;;;;;;0.74;100.00;99765.41;31104136;28;20511;-74
2022/01/28 15:06:52;;;;;;;27.03;12.50;;;;;;;0.68;100.00;99773.00;31099589;28;20148;-73
2022/01/28 15:21:54;;;;;;;30.20;13.87;;;;;;;0.61;100.00;99770.97;31142670;28;20054;-76
2022/01/28 15:37:00;;;;;;;32.30;13.33;;;;;;;0.58;100.00;99778.94;31152833;28;20119;-74
2022/01/28 15:52:03;;;;;;;32.77;13.63;;;;;;;0.44;100.00;99786.72;31133449;28;20054;-75
2022/01/28 16:07:05;;;;;;;34.63;15.70;;;;;;;0.44;100.00;99778.72;31115686;28;20490;-74
2022/01/28 16:22:08;;;;;;;34.37;14.47;;;;;;;0.36;100.00;99787.72;31109744;28;20069;-74
2022/01/28 16:37:10;;;;;;;42.77;19.03;;;;;;;0.31;100.00;99802.91;31106335;28;20830;-77
2022/01/28 16:52:14;;;;;;;34.50;15.20;;;;;;;0.23;100.00;99811.19;31060117;28;20057;-75
2022/01/28 17:07:16;;;;;;;35.63;16.53;;;;;;;0.17;100.00;99801.91;31065581;28;20522;-76
2022/01/28 17:22:18;;;;;;;39.20;16.37;;;;;;;0.04;100.00;99787.97;31110119;28;20069;-74
2022/01/28 17:37:23;;;;;;;28.50;14.47;;;;;;;0.07;100.00;99792.59;31115340;28;20061;-76
2022/01/28 17:52:25;;;;;;;20.60;11.00;;;;;;;0.02;100.00;99779.53;31127482;28;20129;-76
2022/01/28 18:07:27;;;;;;;19.67;10.20;;;;;;;0.06;100.00;99785.72;31098780;28;20085;-75
2022/01/28 18:22:29;;;;;;;23.10;9.97;;;;;;;0.09;100.00;99795.69;31075926;28;20736;-75
2022/01/28 18:37:31;;;;;;;26.33;11.90;;;;;;;0.10;100.00;99802.56;31105610;28;20082;-74
2022/01/28 18:52:33;;;;;;;20.10;10.73;;;;;;;0.15;100.00;99794.25;31087175;28;20088;-75
2022/01/28 19:07:40;;;;;;;32.83;15.33;;;;;;;0.10;100.00;99791.13;31098180;28;20057;-74
2022/01/28 19:22:43;;;;;;;35.40;14.60;;;;;;;-0.02;100.00;99776.06;31065498;28;20092;-76
2022/01/28 19:37:46;;;;;;;26.73;11.97;;;;;;;-0.06;100.00;99777.88;31093753;28;20077;-74
2022/01/28 19:52:50;;;;;;;26.47;11.10;;;;;;;-0.05;100.00;99768.75;31086590;28;20053;-74
2022/01/28 20:07:52;;;;;;;26.87;13.53;;;;;;;-0.07;100.00;99773.66;31109152;28;20147;-75
2022/01/28 20:22:54;;;;;;;26.27;12.43;;;;;;;-0.11;100.00;99784.28;31091348;28;20524;-74
2022/01/28 20:37:57;;;;;;;31.63;14.13;;;;;;;-0.12;100.00;99796.06;31116314;28;20140;-75
2022/01/28 20:53:00;;;;;;;29.27;12.97;;;;;;;-0.13;100.00;99807.09;31060945;28;20524;-72
2022/01/28 21:08:03;;;;;;;33.50;13.97;;;;;;;-0.08;100.00;99802.25;31123642;28;20061;-75
2022/01/28 21:23:05;;;;;;;24.83;12.87;;;;;;;0.06;100.00;99791.03;31129537;28;20128;-74
2022/01/28 21:38:07;;;;;;;29.83;14.07;;;;;;;0.10;100.00;99775.88;31114379;28;20053;-74
2022/01/28 21:53:10;;;;;;;32.63;13.53;;;;;;;0.16;100.00;99784.34;31084739;28;20066;-72
2022/01/28 22:08:12;;;;;;;24.83;12.27;;;;;;;0.11;100.00;99750.72;31107920;28;20144;-74
2022/01/28 22:23:14;;;;;;;26.83;13.00;;;;;;;0.15;100.00;99762.22;31069045;28;20045;-72
2022/01/28 22:38:16;;;;;;;29.30;13.50;;;;;;;0.16;100.00;99766.44;31089786;28;20053;-73
2022/01/28 22:53:19;;;;;;;31.23;13.80;;;;;;;0.13;100.00;99748.47;31054436;28;20089;-74
2022/01/28 23:08:21;;;;;;;30.10;12.60;;;;;;;0.11;100.00;99745.38;31058576;28;20088;-74
2022/01/28 23:23:23;;;;;;;32.50;12.47;;;;;;;0.07;100.00;99755.22;31073105;28;20046;-75
2022/01/28 23:38:24;;;;;;;31.27;14.77;;;;;;;0.09;100.00;99747.63;31057809;28;20133;-73
2022/01/28 23:53:26;;;;;;;22.43;12.20;;;;;;;0.06;100.00;99753.69;31064231;28;20045;-73
